createdAt,value
2023-04-12T00:00:12.572Z,0.68
2023-04-12T00:02:42.368Z,0.60
2023-04-12T00:05:11.514Z,0.60
2023-04-12T00:07:41.102Z,0.70
2023-04-12T00:10:09.568Z,0.60
2023-04-12T00:12:36.610Z,0.60
2023-04-12T00:15:04.130Z,0.60
2023-04-12T00:17:32.262Z,0.60
2023-04-12T00:19:59.337Z,0.60
2023-04-12T00:22:26.823Z,0.60
2023-04-12T00:24:56.359Z,0.70
2023-04-12T00:27:23.400Z,0.70
2023-04-12T00:29:50.358Z,0.65
2023-04-12T00:32:17.391Z,0.60
2023-04-12T00:34:44.268Z,0.70
2023-04-12T00:56:41.506Z,0.60
2023-04-12T00:59:08.744Z,0.60
2023-04-12T01:01:35.604Z,0.63
2023-04-12T01:04:04.968Z,0.60
2023-04-12T01:06:41.031Z,0.63
2023-04-12T01:09:30.466Z,0.70
2023-04-12T01:12:05.272Z,0.60
2023-04-12T01:15:08.340Z,0.43
2023-04-12T01:17:54.823Z,0.63
2023-04-12T01:20:26.149Z,0.68
2023-04-12T01:23:15.876Z,0.60
2023-04-12T01:26:08.298Z,0.70
2023-04-12T01:28:42.392Z,0.60
2023-04-12T01:31:10.664Z,0.63
2023-04-12T01:33:39.081Z,0.70
2023-04-12T01:36:16.138Z,0.70
2023-04-12T01:38:48.041Z,0.60
2023-04-12T01:41:15.234Z,0.70
2023-04-12T01:43:46.281Z,0.70
2023-04-12T01:46:17.332Z,0.65
2023-04-12T01:48:51.101Z,0.70
2023-04-12T01:51:34.791Z,0.80
2023-04-12T01:54:12.234Z,0.60
2023-04-12T01:56:45.041Z,0.60
2023-04-12T01:59:14.863Z,0.70
2023-04-12T02:01:44.074Z,0.57
2023-04-12T02:04:11.818Z,0.52
2023-04-12T02:06:39.889Z,0.60
2023-04-12T02:09:09.904Z,0.60
2023-04-12T02:11:36.893Z,0.60
2023-04-12T02:14:06.634Z,0.70
2023-04-12T02:16:34.871Z,0.70
2023-04-12T02:19:02.231Z,0.60
2023-04-12T02:21:33.787Z,0.60
2023-04-12T02:24:04.633Z,0.70
2023-04-12T02:26:31.707Z,0.70
2023-04-12T02:28:58.660Z,0.60
2023-04-12T02:34:33.531Z,0.70
2023-04-12T02:37:18.960Z,0.70
2023-04-12T02:39:52.584Z,0.60
2023-04-12T02:44:49.106Z,0.60
2023-04-12T02:47:16.412Z,0.70
2023-04-12T02:49:47.155Z,0.60
2023-04-12T02:52:17.155Z,0.70
2023-04-12T02:55:05.996Z,0.60
2023-04-12T02:57:33.526Z,0.52
2023-04-12T03:00:01.896Z,0.60
2023-04-12T03:02:45.180Z,0.60
2023-04-12T03:05:23.413Z,0.60
2023-04-12T03:07:53.796Z,0.70
2023-04-12T03:13:02.517Z,0.70
2023-04-12T03:15:34.096Z,0.70
2023-04-12T03:18:02.036Z,0.60
2023-04-12T03:20:33.719Z,0.70
2023-04-12T03:23:08.796Z,0.50
2023-04-12T03:25:39.151Z,0.63
2023-04-12T03:28:45.965Z,0.65
2023-04-12T03:31:13.451Z,0.77
2023-04-12T03:33:43.253Z,0.60
2023-04-12T03:36:23.215Z,0.57
2023-04-12T03:39:00.138Z,0.60
2023-04-12T03:41:32.962Z,0.70
2023-04-12T03:44:03.982Z,0.63
2023-04-12T03:46:35.863Z,0.63
2023-04-12T03:49:07.670Z,0.70
2023-04-12T03:51:35.925Z,0.60
2023-04-12T03:54:09.181Z,0.70
2023-04-12T03:56:46.119Z,0.60
2023-04-12T03:59:23.479Z,0.70
2023-04-12T04:01:51.038Z,0.60
2023-04-12T04:04:23.060Z,0.68
2023-04-12T04:06:55.572Z,0.70
2023-04-12T04:09:23.613Z,0.70
2023-04-12T04:11:52.292Z,0.60
2023-04-12T04:14:21.643Z,0.70
2023-04-12T04:16:54.224Z,0.70
2023-04-12T04:19:28.351Z,0.60
2023-04-12T04:21:56.487Z,0.70
2023-04-12T04:24:26.209Z,0.60
2023-04-12T04:26:58.963Z,0.60
2023-04-12T04:29:28.751Z,0.60
2023-04-12T04:31:58.038Z,0.60
2023-04-12T04:34:26.423Z,0.60
2023-04-12T04:39:29.466Z,0.60
2023-04-12T04:45:24.711Z,0.70
2023-04-12T04:47:54.047Z,0.70
2023-04-12T04:50:25.569Z,0.60
2023-04-12T04:52:53.575Z,0.68
2023-04-12T04:55:23.482Z,0.60
2023-04-12T04:57:55.708Z,0.60
2023-04-12T05:00:25.979Z,0.60
2023-04-12T05:02:56.865Z,0.60
2023-04-12T05:05:31.582Z,0.60
2023-04-12T05:08:05.757Z,0.60
2023-04-12T05:10:37.808Z,0.60
2023-04-12T05:13:10.367Z,0.60
2023-04-12T05:15:40.715Z,0.60
2023-04-12T05:18:08.039Z,0.60
2023-04-12T05:20:35.115Z,0.60
2023-04-12T05:23:02.540Z,0.60
2023-04-12T05:25:29.712Z,0.50
2023-04-12T05:28:04.841Z,0.50
2023-04-12T05:30:32.906Z,0.60
2023-04-12T05:33:05.489Z,0.60
2023-04-12T05:35:34.115Z,0.60
2023-04-12T05:38:01.228Z,0.60
2023-04-12T05:40:28.558Z,0.60
2023-04-12T05:42:59.401Z,0.60
2023-04-12T05:45:30.135Z,0.60
2023-04-12T05:47:59.625Z,0.60
2023-04-12T05:50:26.945Z,0.57
2023-04-12T05:52:55.261Z,0.50
2023-04-12T05:55:28.248Z,0.50
2023-04-12T05:57:55.520Z,0.60
2023-04-12T06:00:23.589Z,0.52
2023-04-12T06:02:56.945Z,0.55
2023-04-12T06:05:42.802Z,0.63
2023-04-12T06:08:10.460Z,0.50
2023-04-12T06:10:37.542Z,0.60
2023-04-12T06:13:04.954Z,0.60
2023-04-12T06:15:33.738Z,0.55
2023-04-12T06:18:03.604Z,0.57
2023-04-12T06:20:30.858Z,0.50
2023-04-12T06:22:58.102Z,0.50
2023-04-12T06:25:26.088Z,0.50
2023-04-12T06:27:58.080Z,0.50
2023-04-12T06:30:28.134Z,0.52
2023-04-12T06:32:55.356Z,0.60
2023-04-12T06:35:25.623Z,0.50
2023-04-12T06:37:52.863Z,0.50
2023-04-12T06:40:19.861Z,0.52
2023-04-12T06:42:47.001Z,0.60
2023-04-12T06:45:23.340Z,0.50
2023-04-12T06:47:50.613Z,0.50
2023-04-12T06:50:18.669Z,0.60
2023-04-12T06:52:47.144Z,0.50
2023-04-12T06:55:14.794Z,0.60
2023-04-12T06:57:43.252Z,0.50
2023-04-12T07:00:14.026Z,0.50
2023-04-12T07:02:41.389Z,0.50
2023-04-12T07:05:09.877Z,0.50
2023-04-12T07:07:40.098Z,0.50
2023-04-12T07:10:07.786Z,0.50
2023-04-12T07:12:34.758Z,0.50
2023-04-12T07:15:02.795Z,0.50
2023-04-12T07:17:30.383Z,0.50
2023-04-12T07:20:25.787Z,0.50
2023-04-12T07:25:19.545Z,0.60
2023-04-12T07:27:46.605Z,0.50
2023-04-12T07:30:13.874Z,0.60
2023-04-12T07:32:41.025Z,0.50
2023-04-12T07:35:08.621Z,0.60
2023-04-12T07:37:36.055Z,0.55
2023-04-12T07:40:12.931Z,0.50
2023-04-12T07:42:45.409Z,0.50
2023-04-12T07:45:12.648Z,0.50
2023-04-12T07:47:39.736Z,0.50
2023-04-12T07:50:09.527Z,0.60
2023-04-12T07:52:42.247Z,0.50
2023-04-12T07:55:10.322Z,0.60
2023-04-12T07:57:38.089Z,0.60
2023-04-12T08:00:06.119Z,0.60
2023-04-12T08:02:43.134Z,0.60
2023-04-12T08:05:10.655Z,0.50
2023-04-12T08:07:37.757Z,0.50
2023-04-12T08:10:05.077Z,0.50
2023-04-12T08:12:32.053Z,0.60
2023-04-12T08:15:03.604Z,0.60
2023-04-12T08:17:30.956Z,0.60
2023-04-12T08:19:57.863Z,0.50
2023-04-12T08:22:25.245Z,0.60
2023-04-12T08:24:52.835Z,0.60
2023-04-12T08:27:20.295Z,0.60
2023-04-12T08:29:47.389Z,0.70
2023-04-12T08:32:14.419Z,0.60
2023-04-12T08:34:42.064Z,0.60
2023-04-12T08:37:10.873Z,0.60
2023-04-12T08:39:37.844Z,0.60
2023-04-12T08:42:10.837Z,0.60
2023-04-12T08:44:39.817Z,0.60
2023-04-12T08:47:10.904Z,0.60
2023-04-12T08:49:38.496Z,0.60
2023-04-12T08:52:07.274Z,0.60
2023-04-12T08:54:34.827Z,0.50
2023-04-12T08:57:04.723Z,0.50
2023-04-12T08:59:33.193Z,0.60
2023-04-12T09:02:00.841Z,0.57
2023-04-12T09:04:28.042Z,0.60
2023-04-12T09:06:55.421Z,0.50
2023-04-12T09:09:43.392Z,0.50
2023-04-12T09:12:11.412Z,0.60
2023-04-12T09:14:39.525Z,0.50
2023-04-12T09:17:25.088Z,0.50
2023-04-12T09:19:53.401Z,0.50
2023-04-12T09:22:33.332Z,0.60
2023-04-12T09:25:01.036Z,0.60
2023-04-12T09:27:29.996Z,0.50
2023-04-12T09:30:13.198Z,0.60
2023-04-12T09:32:40.332Z,0.60
2023-04-12T09:35:07.887Z,0.60
2023-04-12T09:37:35.331Z,0.50
2023-04-12T09:40:04.690Z,0.50
2023-04-12T09:42:35.102Z,0.50
2023-04-12T09:45:24.624Z,0.50
2023-04-12T09:47:54.846Z,0.50
2023-04-12T09:50:28.624Z,0.50
2023-04-12T09:52:56.922Z,0.57
2023-04-12T09:55:26.368Z,0.50
2023-04-12T09:57:55.574Z,0.50
2023-04-12T10:00:25.532Z,0.60
2023-04-12T10:02:54.667Z,0.50
2023-04-12T10:05:28.271Z,0.50
2023-04-12T10:07:58.609Z,0.50
2023-04-12T10:10:33.869Z,0.50
2023-04-12T10:13:19.396Z,0.50
2023-04-12T10:15:53.317Z,0.50
2023-04-12T10:18:24.230Z,0.50
2023-04-12T10:20:51.551Z,0.50
2023-04-12T10:23:24.570Z,0.50
2023-04-12T10:25:55.620Z,0.50
2023-04-12T10:28:23.634Z,0.50
2023-04-12T10:30:57.486Z,0.50
2023-04-12T10:33:31.848Z,0.50
2023-04-12T10:36:08.937Z,0.50
2023-04-12T10:39:09.843Z,0.50
2023-04-12T10:41:37.668Z,0.50
2023-04-12T10:44:26.319Z,0.50
2023-04-12T10:46:53.490Z,0.50
2023-04-12T10:49:39.471Z,0.50
2023-04-12T10:52:14.191Z,0.50
2023-04-12T10:54:41.783Z,0.40
2023-04-12T10:57:44.177Z,0.40
2023-04-12T11:00:11.734Z,0.50
2023-04-12T11:03:06.367Z,0.40
2023-04-12T11:06:20.027Z,0.50
2023-04-12T11:09:42.133Z,0.40
2023-04-12T11:12:15.543Z,0.40
2023-04-12T11:14:50.106Z,0.40
2023-04-12T11:17:21.741Z,0.50
2023-04-12T11:20:00.553Z,0.40
2023-04-12T11:22:30.265Z,0.40
2023-04-12T11:25:01.868Z,0.40
2023-04-12T11:27:32.030Z,0.50
2023-04-12T11:29:59.991Z,0.40
2023-04-12T11:32:29.542Z,0.47
2023-04-12T11:34:58.067Z,0.40
2023-04-12T11:37:32.383Z,0.40
2023-04-12T11:40:00.516Z,0.50
2023-04-12T11:42:30.429Z,0.43
2023-04-12T11:45:02.516Z,0.50
2023-04-12T11:47:36.321Z,0.50
2023-04-12T11:50:03.934Z,0.40
2023-04-12T11:52:32.608Z,0.47
2023-04-12T11:55:11.348Z,0.50
2023-04-12T11:57:39.669Z,0.47
2023-04-12T12:00:10.273Z,0.40
2023-04-12T12:02:46.577Z,0.40
2023-04-12T12:05:20.434Z,0.40
2023-04-12T12:07:47.779Z,0.40
2023-04-12T12:10:32.547Z,0.40
2023-04-12T12:13:12.968Z,0.40
2023-04-12T12:15:44.789Z,0.40
2023-04-12T12:18:12.135Z,0.40
2023-04-12T12:20:52.576Z,0.40
2023-04-12T12:23:32.433Z,0.40
2023-04-12T12:26:18.392Z,0.40
2023-04-12T12:28:56.535Z,0.40
2023-04-12T12:31:45.651Z,0.40
2023-04-12T12:34:14.251Z,0.40
2023-04-12T12:36:41.399Z,0.40
2023-04-12T12:39:11.020Z,0.40
2023-04-12T12:41:43.276Z,0.40
2023-04-12T12:44:11.612Z,0.40
2023-04-12T12:46:53.465Z,0.40
2023-04-12T12:49:20.991Z,0.40
2023-04-12T12:51:48.158Z,0.40
2023-04-12T12:54:31.761Z,0.30
2023-04-12T12:57:32.083Z,0.40
2023-04-12T12:59:59.042Z,0.40
2023-04-12T13:02:26.395Z,0.38
2023-04-12T13:04:57.646Z,0.40
2023-04-12T13:07:24.788Z,0.40
2023-04-12T13:09:51.792Z,0.40
2023-04-12T13:12:21.474Z,0.30
2023-04-12T13:14:48.939Z,0.30
2023-04-12T13:17:18.967Z,0.40
2023-04-12T13:19:47.006Z,0.30
2023-04-12T13:22:17.155Z,0.40
2023-04-12T13:24:44.167Z,0.40
2023-04-12T13:27:12.727Z,0.40
2023-04-12T13:29:43.430Z,0.40
2023-04-12T13:32:10.556Z,0.40
2023-04-12T13:34:37.888Z,0.30
2023-04-12T13:37:04.877Z,0.40
2023-04-12T13:39:33.774Z,0.30
2023-04-12T13:42:02.443Z,0.30
2023-04-12T13:44:36.877Z,0.40
2023-04-12T13:49:31.687Z,0.40
2023-04-12T13:52:02.952Z,0.40
2023-04-12T13:54:31.035Z,0.40
2023-04-12T13:56:58.549Z,0.30
2023-04-12T13:59:28.517Z,0.30
2023-04-12T14:01:56.250Z,0.30
2023-04-12T14:04:23.379Z,0.30
2023-04-12T14:06:50.362Z,0.30
2023-04-12T14:09:34.558Z,0.30
2023-04-12T14:12:03.970Z,0.20
2023-04-12T14:14:33.587Z,0.30
2023-04-12T14:17:02.154Z,0.30
2023-04-12T14:19:29.714Z,0.30
2023-04-12T14:21:57.029Z,0.30
2023-04-12T14:24:26.867Z,0.30
2023-04-12T14:26:54.550Z,0.30
2023-04-12T14:29:21.421Z,0.30
2023-04-12T14:31:48.852Z,0.30
2023-04-12T14:34:15.887Z,0.20
2023-04-12T14:36:42.948Z,0.20
2023-04-12T14:39:13.896Z,0.20
2023-04-12T14:41:42.199Z,0.30
2023-04-12T14:44:09.099Z,0.30
2023-04-12T14:46:36.513Z,0.20
2023-04-12T14:49:03.456Z,0.20
2023-04-12T14:51:30.556Z,0.30
2023-04-12T14:54:00.417Z,0.30
2023-04-12T14:56:30.509Z,0.30
2023-04-12T14:58:58.285Z,0.30
2023-04-12T15:01:25.792Z,0.30
2023-04-12T15:03:56.201Z,0.30
2023-04-12T15:06:26.143Z,0.30
2023-04-12T15:08:57.696Z,0.30
2023-04-12T15:11:27.478Z,0.20
2023-04-12T15:13:55.448Z,0.20
2023-04-12T15:16:23.719Z,0.20
2023-04-12T15:18:51.512Z,0.20
2023-04-12T15:21:18.867Z,0.20
2023-04-12T15:23:46.226Z,0.20
2023-04-12T15:26:14.511Z,0.20
2023-04-12T15:28:42.508Z,0.20
2023-04-12T15:31:12.111Z,0.30
2023-04-12T15:33:39.249Z,0.20
2023-04-12T15:36:06.700Z,0.22
2023-04-12T15:38:43.343Z,0.20
2023-04-12T15:41:13.773Z,0.30
2023-04-12T15:43:42.264Z,0.20
2023-04-12T15:46:11.843Z,0.30
2023-04-12T15:48:39.017Z,0.25
2023-04-12T15:51:14.297Z,0.30
2023-04-12T15:53:43.548Z,0.30
2023-04-12T15:56:18.396Z,0.30
2023-04-12T15:58:46.196Z,0.30
2023-04-12T16:01:13.261Z,0.20
2023-04-12T16:03:41.962Z,0.30
2023-04-12T16:06:09.256Z,0.30
2023-04-12T16:08:36.286Z,0.30
2023-04-12T16:11:06.318Z,0.30
2023-04-12T16:13:33.386Z,0.30
2023-04-12T16:16:00.628Z,0.30
2023-04-12T16:18:30.998Z,0.30
2023-04-12T16:20:58.422Z,0.30
2023-04-12T16:23:25.497Z,0.30
2023-04-12T16:25:52.706Z,0.30
2023-04-12T16:28:20.789Z,0.30
2023-04-12T16:30:49.697Z,0.30
2023-04-12T16:33:17.058Z,0.30
2023-04-12T16:36:04.685Z,0.30
2023-04-12T16:38:33.041Z,0.30
2023-04-12T16:41:00.207Z,0.30
2023-04-12T16:43:27.618Z,0.30
2023-04-12T16:45:55.729Z,0.30
2023-04-12T16:48:26.337Z,0.30
2023-04-12T16:50:55.256Z,0.30
2023-04-12T16:53:22.426Z,0.40
2023-04-12T16:55:49.467Z,0.30
2023-04-12T16:58:22.551Z,0.30
2023-04-12T17:00:59.112Z,0.30
2023-04-12T17:03:27.005Z,0.30
2023-04-12T17:06:03.263Z,0.30
2023-04-12T17:08:32.094Z,0.30
2023-04-12T17:11:01.663Z,0.30
2023-04-12T17:13:30.344Z,0.30
2023-04-12T17:16:00.366Z,0.30
2023-04-12T17:18:27.430Z,0.30
2023-04-12T17:20:56.180Z,0.30
2023-04-12T17:23:24.921Z,0.30
2023-04-12T17:25:54.745Z,0.30
2023-04-12T17:28:21.897Z,0.30
2023-04-12T17:30:49.356Z,0.30
2023-04-12T17:33:18.317Z,0.30
2023-04-12T17:38:37.518Z,0.30
2023-04-12T17:41:04.964Z,0.30
2023-04-12T17:43:33.345Z,0.30
2023-04-12T17:46:03.809Z,0.40
2023-04-12T17:48:31.606Z,0.30
2023-04-12T17:50:59.965Z,0.40
2023-04-12T17:53:29.466Z,0.40
2023-04-12T17:55:59.880Z,0.30
2023-04-12T17:58:45.633Z,0.40
2023-04-12T18:01:14.455Z,0.30
2023-04-12T18:03:41.964Z,0.40
2023-04-12T18:06:46.293Z,0.30
2023-04-12T18:09:13.894Z,0.30
2023-04-12T18:11:43.376Z,0.35
2023-04-12T18:14:13.858Z,0.30
2023-04-12T18:16:41.412Z,0.30
2023-04-12T18:19:30.146Z,0.40
2023-04-12T18:21:58.967Z,0.40
2023-04-12T18:24:26.579Z,0.40
2023-04-12T18:26:54.867Z,0.40
2023-04-12T18:29:22.017Z,0.40
2023-04-12T18:31:49.026Z,0.40
2023-04-12T18:34:29.155Z,0.40
2023-04-12T18:37:04.132Z,0.40
2023-04-12T18:39:37.616Z,0.38
2023-04-12T18:42:06.521Z,0.40
2023-04-12T18:44:34.762Z,0.40
2023-04-12T18:47:01.938Z,0.40
2023-04-12T18:49:47.511Z,0.40
2023-04-12T18:52:17.384Z,0.40
2023-04-12T18:54:44.492Z,0.40
2023-04-12T18:57:18.768Z,0.40
2023-04-12T18:59:49.151Z,0.40
2023-04-12T19:02:21.233Z,0.40
2023-04-12T19:04:51.524Z,0.40
2023-04-12T19:07:18.896Z,0.40
2023-04-12T19:09:47.181Z,0.40
2023-04-12T19:12:14.338Z,0.40
2023-04-12T19:14:42.586Z,0.40
2023-04-12T19:17:10.778Z,0.40
2023-04-12T19:19:38.027Z,0.40
2023-04-12T19:22:07.685Z,0.40
2023-04-12T19:24:54.484Z,0.40
2023-04-12T19:27:22.973Z,0.40
2023-04-12T19:29:51.761Z,0.40
2023-04-12T19:32:19.438Z,0.40
2023-04-12T19:34:53.955Z,0.40
2023-04-12T19:37:21.722Z,0.40
2023-04-12T19:39:50.512Z,0.40
2023-04-12T19:42:17.796Z,0.40
2023-04-12T19:44:44.895Z,0.40
2023-04-12T19:47:11.943Z,0.40
2023-04-12T19:49:39.359Z,0.40
2023-04-12T19:52:27.036Z,0.40
2023-04-12T19:54:56.993Z,0.40
2023-04-12T19:57:25.112Z,0.40
2023-04-12T19:59:52.658Z,0.40
2023-04-12T20:02:20.373Z,0.40
2023-04-12T20:04:49.506Z,0.40
2023-04-12T20:07:16.706Z,0.50
2023-04-12T20:09:48.458Z,0.50
2023-04-12T20:12:16.758Z,0.40
2023-04-12T20:14:46.875Z,0.40
2023-04-12T20:17:16.654Z,0.40
2023-04-12T20:19:43.513Z,0.45
2023-04-12T20:22:10.671Z,0.40
2023-04-12T20:24:40.387Z,0.47
2023-04-12T20:27:09.853Z,0.50
2023-04-12T20:29:36.961Z,0.50
2023-04-12T20:32:04.508Z,0.50
2023-04-12T20:34:34.639Z,0.50
2023-04-12T20:37:02.172Z,0.40
2023-04-12T20:39:29.654Z,0.50
2023-04-12T20:42:01.137Z,0.50
2023-04-12T20:44:28.562Z,0.50
2023-04-12T20:46:55.591Z,0.50
2023-04-12T20:49:22.556Z,0.50
2023-04-12T20:51:50.985Z,0.47
2023-04-12T20:54:20.030Z,0.40
2023-04-12T20:56:46.983Z,0.50
2023-04-12T20:59:14.333Z,0.40
2023-04-12T21:01:43.322Z,0.40
2023-04-12T21:04:33.311Z,0.40
2023-04-12T21:07:07.836Z,0.40
2023-04-12T21:09:35.483Z,0.40
2023-04-12T21:12:06.200Z,0.47
2023-04-12T21:14:36.135Z,0.50
2023-04-12T21:17:07.412Z,0.50
2023-04-12T21:19:42.018Z,0.40
2023-04-12T21:22:09.243Z,0.43
2023-04-12T21:24:38.628Z,0.40
2023-04-12T21:27:09.272Z,0.50
2023-04-12T21:29:41.343Z,0.40
2023-04-12T21:32:12.266Z,0.40
2023-04-12T21:34:45.916Z,0.50
2023-04-12T21:37:15.930Z,0.40
2023-04-12T21:39:44.793Z,0.40
2023-04-12T21:42:11.760Z,0.50
2023-04-12T21:44:42.069Z,0.50
2023-04-12T21:47:09.245Z,0.40
2023-04-12T21:49:36.169Z,0.50
2023-04-12T21:52:08.299Z,0.50
2023-04-12T21:54:37.164Z,0.50
2023-04-12T21:57:04.890Z,0.50
2023-04-12T21:59:31.745Z,0.50
2023-04-12T22:01:58.720Z,0.50
2023-04-12T22:04:25.771Z,0.50
2023-04-12T22:06:53.025Z,0.50
2023-04-12T22:09:23.523Z,0.50
2023-04-12T22:11:50.497Z,0.50
2023-04-12T22:14:17.388Z,0.50
2023-04-12T22:16:45.334Z,0.50
2023-04-12T22:19:13.097Z,0.50
2023-04-12T22:21:40.274Z,0.50
2023-04-12T22:24:08.411Z,0.50
2023-04-12T22:26:35.567Z,0.50
2023-04-12T22:29:03.128Z,0.50
2023-04-12T22:31:48.544Z,0.40
2023-04-12T22:34:35.144Z,0.50
2023-04-12T22:37:03.574Z,0.50
2023-04-12T22:39:51.573Z,0.50
2023-04-12T22:42:20.909Z,0.50
2023-04-12T22:44:49.912Z,0.50
2023-04-12T22:47:35.859Z,0.50
2023-04-12T22:50:08.326Z,0.50
2023-04-12T22:52:47.825Z,0.50
2023-04-12T22:55:33.490Z,0.50
2023-04-12T22:58:01.782Z,0.50
2023-04-12T23:00:30.519Z,0.50
2023-04-12T23:03:34.502Z,0.50
2023-04-12T23:06:02.134Z,0.50
2023-04-12T23:08:29.473Z,0.50
2023-04-12T23:11:02.301Z,0.50
2023-04-12T23:13:35.837Z,0.50
2023-04-12T23:16:06.551Z,0.60
2023-04-12T23:18:33.742Z,0.50
2023-04-12T23:21:04.292Z,0.50
2023-04-12T23:23:37.367Z,0.50
2023-04-12T23:26:04.427Z,0.50
2023-04-12T23:28:31.370Z,0.50
2023-04-12T23:31:01.731Z,0.50
2023-04-12T23:33:29.266Z,0.50
2023-04-12T23:35:56.290Z,0.50
2023-04-12T23:38:26.173Z,0.50
2023-04-12T23:41:12.908Z,0.50
2023-04-12T23:43:40.009Z,0.50
2023-04-12T23:46:07.119Z,0.50
2023-04-12T23:48:35.205Z,0.50
2023-04-12T23:51:02.183Z,0.50
2023-04-12T23:53:47.734Z,0.52
2023-04-12T23:56:16.091Z,0.50
2023-04-12T23:58:43.039Z,0.50
